LEVD/VLL METAR and TAF weather

Enter ICAO airport designator
Station Type Date Time Source
LEVD METAR 2021/09/25 02:00 UTC NOAA

LEVD 250200Z AUTO 18003KT 160V220 CAVOK 11/09 Q1016


Station Type Date Time Source
LEVD Decoded METAR 2021/09/25 02:00 UTC NOAA

Valladolid / Villanubla, Spain (LEVD) 41-43N 004-51W 846M
Sep 24, 2021 - 10:00 PM EDT / 2021.09.25 0200 UTC
Wind: from the S (180 degrees) at 3 MPH (3 KT) (direction variable):0
Visibility: greater than 7 mile(s):0
Temperature: 51 F (11 C)
Dew Point: 48 F (9 C)
Relative Humidity: 87%
Pressure (altimeter): 30.00 in. Hg (1016 hPa)
ob: LEVD 250200Z AUTO 18003KT 160V220 CAVOK 11/09 Q1016
cycle: 2

Station Type Date Time Source
LEVD TAF 2021/09/25 03:27 UTC NOAA

TAF TAF LEVD 250200Z 2503/2603 VRB05KT CAVOK TX19/2515Z TN10/2506Z
BECMG 2509/2511 21012KT PROB30
TEMPO 2510/2521 3000 RA BKN010 FEW030TCU PROB40
TEMPO 2522/2603 BKN008

Example: see airport list